Weather at Paramali Radio Sonde Helipad

Public forecast

Using degrees Celsius for public forecast. Weather courtesy of forecast.io.

Closest aviation weather report (METAR) to Paramali Radio Sonde Helipad

Closest report is RAF Akrotiri, 10.2 nm (18.9 km) ESE.

2024/06/21 17:20 (retrieved 34 minutes ago)

LCRA 211720Z 25010KT 9999 FEW050 26/23 Q1004 NOSIG RMK BLU BLU

Closest aviation forecast (TAF) to Paramali Radio Sonde Helipad

Closest forecast is RAF Akrotiri, 10.2 nm (18.9 km) ESE.

2024/06/21 15:36 (retrieved 2 hours ago)

TAF TAF LCRA 211329Z 2115/2209 26010KT CAVOK PROB30 TEMPO 2118/2123 7000 HZ SCT010 TEMPO 2123/2203 6000 BR SCT008 PROB30 TEMPO 2123/2203 03003KT 3000 BR SCT004 TEMPO 2203/2206 03003KT 3000 BR SCT004 PROB30 TEMPO 2206/2208 03003KT 7000 HZ SCT006